La Fontaine, Indiana
Current Conditions -  °F | °C
As of 12:15 PM on Thursday 23 Oct 2014 (Local Time) from KMZZ Reporting Station
Clear Clear  
Wind Chill: 51°   Ceiling: Unl
Heat Index: 51°   Visibility: 10mi
Dew Point: 42°   Wind: 3mph
Humidity: 70%   Direction: 300°WNW
Pressure: 30.25"   Gusts: NA
Location:  40.67°N, 85.72°W
Report Text: KMZZ 231615Z AUTO 30003KT 10SM CLR 11/05 A3025 RMK AO2 T01060053
Loading
Personal Weather Stations






























Interactive Weather Map
Tropical Storm Tracking
New forecast layout! Learn more

10-Day Weather Forecast

Advertisements
Track Severe Weather on mobile